Terminal Aerodrome Forecast
Issued by NWS

Home | Current Version | Previous Version | Text Only | Print | Product List | Glossary On
Versions: 1 2 3 4 5 6 7 8 9 10 11 12 13 14 15
874
FTUS43 KEAX 261919 AAA
TAFSTJ
TAF AMD
KSTJ 261919Z 2619/2718 23010KT P6SM FEW250
     FM262100 22013KT P6SM VCTS SCT040 BKN080CB
     FM270000 20005KT P6SM SKC=

USA.gov is the U.S. government's official web portal to all federal, state and local government web resources and services.